Time;durP1;ratioP1;P1;durP2;ratioP2;P2;SDS_P1;SDS_P2;PMS_P1;PMS_P2;Temp;Humidity;BMP_temperature;BMP_pressure;BME280_temperature;BME280_humidity;BME280_pressure;Samples;Min_cycle;Max_cycle;Signal;HPM_P1;HPM_P2
2023/04/25 00:01:35;;;;;;;14.68;6.00;;;10.50;99.90;;;;;;5077638;28;20017;-70
2023/04/25 00:04:02;;;;;;;9.55;5.75;;;10.50;99.90;;;;;;5077718;28;20041;-70
2023/04/25 00:06:28;;;;;;;12.23;5.65;;;10.50;99.90;;;;;;5078061;28;20029;-70
2023/04/25 00:08:55;;;;;;;13.25;6.60;;;10.50;99.90;;;;;;5077501;28;20025;-70
2023/04/25 00:11:20;;;;;;;15.63;6.70;;;10.50;99.90;;;;;;5077362;28;20104;-72
2023/04/25 00:13:46;;;;;;;12.88;6.32;;;10.50;99.90;;;;;;5077416;28;20111;-72
2023/04/25 00:16:14;;;;;;;14.75;5.72;;;10.50;99.90;;;;;;5077949;28;20025;-72
2023/04/25 00:18:40;;;;;;;12.88;5.78;;;10.50;99.90;;;;;;5077977;28;20025;-72
2023/04/25 00:21:06;;;;;;;9.93;5.90;;;10.40;99.90;;;;;;5077365;28;20025;-72
2023/04/25 00:23:31;;;;;;;9.18;5.22;;;10.40;99.90;;;;;;5077246;28;20028;-70
2023/04/25 00:25:57;;;;;;;10.35;5.35;;;10.40;99.90;;;;;;5077459;28;20020;-71
2023/04/25 00:28:22;;;;;;;10.63;5.72;;;10.30;99.90;;;;;;5076996;28;20024;-71
2023/04/25 00:30:48;;;;;;;15.07;6.10;;;10.40;99.90;;;;;;5077091;28;20025;-71
2023/04/25 00:33:14;;;;;;;13.63;6.53;;;10.30;99.90;;;;;;5076911;28;20052;-72
2023/04/25 00:35:39;;;;;;;10.50;5.45;;;10.30;99.90;;;;;;5076516;28;20021;-72
2023/04/25 00:38:05;;;;;;;10.50;5.25;;;10.30;99.90;;;;;;5076614;28;20088;-72
2023/04/25 00:40:30;;;;;;;11.48;5.20;;;10.30;99.90;;;;;;5076622;28;20035;-72
2023/04/25 00:42:56;;;;;;;10.48;4.70;;;10.20;99.90;;;;;;5076835;28;20086;-72
2023/04/25 00:45:26;;;;;;;8.63;4.82;;;10.30;99.90;;;;;;5076667;28;20036;-72
2023/04/25 00:47:52;;;;;;;11.68;5.38;;;10.30;99.90;;;;;;5076462;28;20063;-72
2023/04/25 00:50:17;;;;;;;11.18;4.88;;;10.30;99.90;;;;;;5076538;28;20029;-71
2023/04/25 00:52:44;;;;;;;8.10;4.30;;;10.30;99.90;;;;;;5076511;28;20054;-70
2023/04/25 00:55:12;;;;;;;10.05;4.05;;;10.30;99.90;;;;;;5076157;28;20166;-70
2023/04/25 00:57:38;;;;;;;6.38;3.47;;;10.30;99.90;;;;;;5076687;28;20021;-70
2023/04/25 01:00:06;;;;;;;6.97;4.03;;;10.30;99.90;;;;;;5076082;28;20027;-72
2023/04/25 01:02:33;;;;;;;8.18;3.25;;;10.20;99.90;;;;;;5076376;28;20024;-72
2023/04/25 01:04:58;;;;;;;7.28;3.17;;;10.20;99.90;;;;;;5076279;28;20059;-70
2023/04/25 01:07:24;;;;;;;6.43;3.08;;;10.20;99.90;;;;;;5076721;28;20077;-70
2023/04/25 01:09:52;;;;;;;7.80;3.30;;;10.10;99.90;;;;;;5076363;28;20078;-71
2023/04/25 01:12:18;;;;;;;4.80;2.75;;;10.10;99.90;;;;;;5077076;28;20119;-72
2023/04/25 01:14:44;;;;;;;7.95;3.05;;;10.10;99.90;;;;;;5080555;28;20024;-71
2023/04/25 01:17:10;;;;;;;8.32;3.78;;;10.10;99.90;;;;;;5082039;28;20060;-72
2023/04/25 01:19:36;;;;;;;7.80;3.33;;;10.00;99.90;;;;;;5076327;28;20075;-72
2023/04/25 01:22:01;;;;;;;5.82;3.00;;;10.00;99.90;;;;;;5076930;28;20025;-72
2023/04/25 01:24:27;;;;;;;5.07;3.20;;;10.00;99.90;;;;;;5076887;28;20023;-71
2023/04/25 01:26:56;;;;;;;6.72;3.25;;;10.00;99.90;;;;;;5076096;28;20020;-71
2023/04/25 01:29:22;;;;;;;6.85;3.35;;;10.00;99.90;;;;;;5076548;28;20162;-70
2023/04/25 01:31:47;;;;;;;6.88;2.63;;;9.90;99.90;;;;;;5075938;28;20054;-71
2023/04/25 01:34:13;;;;;;;6.32;2.83;;;9.90;99.90;;;;;;5076647;28;20021;-71
2023/04/25 01:36:39;;;;;;;6.45;2.70;;;9.80;99.90;;;;;;5076329;28;20025;-71
2023/04/25 01:39:05;;;;;;;5.60;2.78;;;9.80;99.90;;;;;;5075960;28;20021;-71
2023/04/25 01:41:31;;;;;;;6.32;2.53;;;9.70;99.90;;;;;;5075969;28;20074;-72
2023/04/25 01:43:57;;;;;;;6.28;2.70;;;9.70;99.90;;;;;;5075801;28;20033;-72
2023/04/25 01:46:23;;;;;;;9.90;2.65;;;9.60;99.90;;;;;;5076054;28;20036;-72
2023/04/25 01:48:48;;;;;;;4.43;2.55;;;9.60;99.90;;;;;;5075817;28;20063;-70
2023/04/25 01:51:15;;;;;;;7.28;3.00;;;9.60;99.90;;;;;;5075672;28;20032;-71
2023/04/25 01:53:40;;;;;;;5.55;2.42;;;9.50;99.90;;;;;;5076757;28;20028;-72
2023/04/25 01:56:06;;;;;;;7.53;3.10;;;9.50;99.90;;;;;;5075724;28;20028;-71
2023/04/25 01:58:31;;;;;;;9.77;2.70;;;9.50;99.90;;;;;;5075762;28;20016;-72
2023/04/25 02:00:57;;;;;;;7.50;2.83;;;9.40;99.90;;;;;;5076011;28;20062;-71
2023/04/25 02:03:23;;;;;;;7.05;3.10;;;9.40;99.90;;;;;;5076556;28;20024;-71
2023/04/25 02:05:49;;;;;;;7.68;2.92;;;9.30;99.90;;;;;;5075877;28;20111;-71
2023/04/25 02:08:16;;;;;;;8.13;3.75;;;9.30;99.90;;;;;;5076379;28;20135;-71
2023/04/25 02:10:41;;;;;;;7.53;2.40;;;9.20;99.90;;;;;;5079051;28;20032;-71
2023/04/25 02:13:07;;;;;;;11.98;3.50;;;9.20;99.90;;;;;;5079447;28;20024;-71
2023/04/25 02:15:33;;;;;;;10.40;3.42;;;9.30;99.90;;;;;;5079148;28;20032;-70
2023/04/25 02:17:59;;;;;;;5.05;2.85;;;9.30;99.90;;;;;;5080381;28;20028;-70
2023/04/25 02:20:26;;;;;;;7.72;2.90;;;9.30;99.90;;;;;;5080314;28;20047;-72
2023/04/25 02:22:52;;;;;;;9.02;2.83;;;9.30;99.90;;;;;;5079206;28;20021;-71
2023/04/25 02:25:19;;;;;;;8.02;3.45;;;9.20;99.90;;;;;;5079224;28;20031;-71
2023/04/25 02:27:45;;;;;;;12.05;2.97;;;9.20;99.90;;;;;;5080028;28;20027;-71
2023/04/25 02:30:11;;;;;;;13.23;3.38;;;9.10;99.90;;;;;;5080390;28;20028;-71
2023/04/25 02:32:38;;;;;;;10.85;3.78;;;9.10;99.90;;;;;;5079843;28;20021;-71
2023/04/25 02:35:05;;;;;;;9.68;2.97;;;9.10;99.90;;;;;;5078709;28;20077;-71
2023/04/25 02:37:31;;;;;;;8.90;2.97;;;9.00;99.90;;;;;;5079011;28;20021;-71
2023/04/25 02:39:57;;;;;;;11.18;3.38;;;9.10;99.90;;;;;;5079518;28;20028;-71
2023/04/25 02:42:22;;;;;;;10.55;3.53;;;9.00;99.90;;;;;;5079202;28;20027;-71
2023/04/25 02:44:48;;;;;;;9.63;3.13;;;8.90;99.90;;;;;;5078715;28;20048;-71
2023/04/25 02:47:14;;;;;;;9.90;3.20;;;8.90;99.90;;;;;;5078722;28;20035;-71
2023/04/25 02:49:39;;;;;;;4.55;2.75;;;8.90;99.90;;;;;;5079660;28;20063;-70
2023/04/25 02:52:05;;;;;;;4.90;2.80;;;8.90;99.90;;;;;;5078654;28;20030;-70
2023/04/25 02:54:30;;;;;;;13.02;2.88;;;8.90;99.90;;;;;;5078608;28;20033;-70
2023/04/25 02:56:56;;;;;;;8.50;2.28;;;8.90;99.90;;;;;;5078919;28;20063;-71
2023/04/25 02:59:21;;;;;;;6.20;2.03;;;8.90;99.90;;;;;;5078410;28;20111;-71
2023/04/25 03:01:47;;;;;;;8.20;2.85;;;8.90;99.90;;;;;;5079474;28;20059;-71
2023/04/25 03:04:12;;;;;;;7.80;2.70;;;8.80;99.90;;;;;;5078345;28;20032;-70
2023/04/25 03:06:38;;;;;;;5.97;3.00;;;8.70;99.90;;;;;;5079335;28;20036;-71
2023/04/25 03:09:03;;;;;;;7.28;2.63;;;8.80;99.90;;;;;;5078754;28;20016;-70
2023/04/25 03:11:29;;;;;;;9.15;3.10;;;8.70;99.90;;;;;;5078445;28;20046;-71
2023/04/25 03:13:55;;;;;;;8.10;3.20;;;8.70;99.90;;;;;;5078502;28;20017;-71
2023/04/25 03:16:21;;;;;;;12.40;2.90;;;8.60;99.90;;;;;;5079046;28;20055;-71
2023/04/25 03:18:47;;;;;;;8.70;2.47;;;8.50;99.90;;;;;;5078098;28;20021;-71
2023/04/25 03:21:13;;;;;;;8.13;3.42;;;8.50;99.90;;;;;;5078279;28;20031;-72
2023/04/25 03:23:38;;;;;;;9.52;2.38;;;8.40;99.90;;;;;;5078086;28;20119;-71
2023/04/25 03:26:04;;;;;;;10.38;2.92;;;8.40;99.90;;;;;;5078873;28;20024;-72
2023/04/25 03:28:29;;;;;;;7.50;2.83;;;8.40;99.90;;;;;;5081626;28;20032;-71
2023/04/25 03:30:55;;;;;;;9.48;2.63;;;8.30;99.90;;;;;;5080801;28;20024;-71
2023/04/25 03:33:20;;;;;;;7.25;2.58;;;8.30;99.90;;;;;;5077924;28;20124;-71
2023/04/25 03:35:46;;;;;;;7.68;2.92;;;8.30;99.90;;;;;;5077749;28;20039;-71
2023/04/25 03:38:11;;;;;;;11.68;2.58;;;8.30;99.90;;;;;;5077984;28;20024;-71
2023/04/25 03:40:37;;;;;;;10.10;3.00;;;8.30;99.90;;;;;;5077845;28;20028;-70
2023/04/25 03:43:02;;;;;;;6.57;2.58;;;8.30;99.90;;;;;;5077701;28;20028;-70
2023/04/25 03:45:28;;;;;;;8.73;2.50;;;8.30;99.90;;;;;;5077968;28;20043;-70
2023/04/25 03:47:53;;;;;;;7.70;2.10;;;8.30;99.90;;;;;;5077672;28;20028;-71
2023/04/25 03:50:19;;;;;;;8.23;2.20;;;8.40;99.90;;;;;;5077576;28;20024;-72
2023/04/25 03:52:45;;;;;;;3.58;2.30;;;8.40;99.90;;;;;;5078378;28;20024;-72
2023/04/25 03:55:10;;;;;;;4.32;2.20;;;8.40;99.90;;;;;;5077650;28;20017;-71
2023/04/25 03:57:36;;;;;;;5.53;2.10;;;8.40;99.90;;;;;;5078461;28;20017;-72
2023/04/25 04:00:03;;;;;;;9.55;2.80;;;8.40;99.90;;;;;;5077400;28;20092;-72
2023/04/25 04:02:28;;;;;;;10.95;2.42;;;8.40;99.90;;;;;;5077307;28;20028;-71
2023/04/25 04:04:55;;;;;;;8.20;2.50;;;8.40;99.90;;;;;;5077190;28;20039;-72
2023/04/25 04:07:21;;;;;;;9.05;2.70;;;8.40;99.90;;;;;;5077171;28;20025;-72
2023/04/25 04:09:46;;;;;;;14.32;3.10;;;8.40;99.90;;;;;;5077407;28;20032;-70
2023/04/25 04:12:12;;;;;;;9.77;2.55;;;8.40;99.90;;;;;;5077615;28;20111;-70
2023/04/25 04:14:37;;;;;;;5.63;1.98;;;8.30;99.90;;;;;;5076969;28;20028;-72
2023/04/25 04:17:03;;;;;;;5.80;2.13;;;8.30;99.90;;;;;;5076994;28;20020;-72
2023/04/25 04:19:28;;;;;;;7.85;2.30;;;8.40;99.90;;;;;;5077125;28;20033;-71
2023/04/25 04:21:54;;;;;;;6.38;2.83;;;8.40;99.90;;;;;;5077286;28;20017;-72
2023/04/25 04:24:19;;;;;;;3.08;1.95;;;8.40;99.90;;;;;;5077696;28;20025;-72
2023/04/25 04:26:45;;;;;;;5.63;2.50;;;8.40;99.90;;;;;;5076873;28;20031;-72
2023/04/25 04:29:11;;;;;;;7.55;2.58;;;8.40;99.90;;;;;;5077755;28;20028;-70
2023/04/25 04:31:37;;;;;;;4.43;2.17;;;8.40;99.90;;;;;;5077568;28;20020;-71
2023/04/25 04:34:03;;;;;;;7.00;2.40;;;8.40;99.90;;;;;;5077398;28;20040;-70
2023/04/25 04:36:29;;;;;;;6.43;2.55;;;8.40;99.90;;;;;;5076560;28;20028;-70
2023/04/25 04:38:56;;;;;;;7.93;2.33;;;8.30;99.90;;;;;;5077545;28;20021;-70
2023/04/25 04:41:21;;;;;;;9.27;2.85;;;8.20;99.90;;;;;;5076805;28;20020;-71
2023/04/25 04:43:47;;;;;;;9.82;2.30;;;8.20;99.90;;;;;;5077418;28;20028;-71
2023/04/25 04:46:13;;;;;;;5.22;2.63;;;8.10;99.90;;;;;;5076977;28;20028;-72
2023/04/25 04:48:39;;;;;;;5.43;2.25;;;8.10;99.90;;;;;;5076439;28;20075;-72
2023/04/25 04:51:06;;;;;;;5.95;2.67;;;8.00;99.90;;;;;;5077362;28;20020;-72
2023/04/25 04:53:32;;;;;;;7.40;3.15;;;8.00;99.90;;;;;;5077330;28;20035;-70
2023/04/25 04:55:57;;;;;;;11.63;3.58;;;8.00;99.90;;;;;;5077149;28;20028;-70
2023/04/25 04:58:23;;;;;;;5.95;2.85;;;8.00;99.90;;;;;;5077477;28;20017;-71
2023/04/25 05:00:49;;;;;;;6.75;3.00;;;8.00;99.90;;;;;;5076462;28;20043;-72
2023/04/25 05:03:15;;;;;;;10.52;2.60;;;8.00;99.90;;;;;;5076403;28;20071;-72
2023/04/25 05:05:41;;;;;;;5.53;2.53;;;7.90;99.90;;;;;;5076532;28;20070;-71
2023/04/25 05:08:06;;;;;;;7.90;2.75;;;7.90;99.90;;;;;;5076260;28;20028;-72
2023/04/25 05:10:32;;;;;;;4.90;2.75;;;7.90;99.90;;;;;;5077263;28;20078;-71
2023/04/25 05:12:58;;;;;;;6.07;2.70;;;7.90;99.90;;;;;;5076572;28;20029;-71
2023/04/25 05:15:23;;;;;;;6.72;2.83;;;7.90;99.90;;;;;;5076463;28;20024;-71
2023/04/25 05:17:49;;;;;;;11.93;3.20;;;7.90;99.90;;;;;;5076190;28;20028;-71
2023/04/25 05:20:15;;;;;;;10.05;3.17;;;7.90;99.90;;;;;;5076384;28;20047;-71
2023/04/25 05:22:41;;;;;;;7.70;2.88;;;7.90;99.90;;;;;;5077002;28;20016;-71
2023/04/25 05:25:08;;;;;;;10.25;2.92;;;7.90;99.90;;;;;;5077039;28;20024;-72
2023/04/25 05:27:34;;;;;;;4.97;2.80;;;7.90;99.90;;;;;;5076327;28;20115;-72
2023/04/25 05:29:59;;;;;;;5.90;2.88;;;7.90;99.90;;;;;;5076125;28;20062;-71
2023/04/25 05:32:25;;;;;;;6.28;2.92;;;8.00;99.90;;;;;;5077245;28;20029;-70
2023/04/25 05:34:51;;;;;;;4.85;2.55;;;8.10;99.90;;;;;;5076675;28;20028;-70
2023/04/25 05:37:17;;;;;;;11.10;3.38;;;8.10;99.90;;;;;;5076779;28;20028;-70
2023/04/25 05:39:43;;;;;;;8.50;3.10;;;8.20;99.90;;;;;;5076118;28;20021;-71
2023/04/25 05:42:08;;;;;;;5.65;2.53;;;8.20;99.90;;;;;;5076361;28;20048;-71
2023/04/25 05:44:34;;;;;;;8.88;3.58;;;8.30;99.90;;;;;;5085657;28;20044;-71
2023/04/25 05:46:59;;;;;;;7.80;2.97;;;8.40;99.90;;;;;;5080773;28;20029;-72
2023/04/25 05:49:25;;;;;;;8.88;3.65;;;8.40;99.90;;;;;;5080761;28;20024;-70
2023/04/25 05:51:50;;;;;;;7.72;3.25;;;8.50;99.90;;;;;;5081308;28;20021;-70
2023/04/25 05:54:16;;;;;;;7.70;3.22;;;8.50;99.90;;;;;;5080899;28;20020;-70
2023/04/25 05:56:41;;;;;;;6.57;2.78;;;8.50;99.90;;;;;;5079957;28;20029;-70
2023/04/25 05:59:07;;;;;;;10.77;3.22;;;8.50;99.90;;;;;;5079688;28;20020;-70
2023/04/25 06:01:32;;;;;;;8.23;2.55;;;8.50;99.90;;;;;;5079990;28;20035;-70
2023/04/25 06:03:58;;;;;;;8.57;3.80;;;8.50;99.90;;;;;;5079849;28;20128;-70
2023/04/25 06:06:24;;;;;;;9.23;3.17;;;8.50;99.90;;;;;;5079584;28;20017;-70
2023/04/25 06:08:50;;;;;;;11.55;3.25;;;8.60;99.90;;;;;;5080257;28;20082;-70
2023/04/25 06:11:15;;;;;;;6.70;3.22;;;8.60;99.90;;;;;;5079394;28;20059;-70
2023/04/25 06:13:41;;;;;;;10.65;3.20;;;8.70;99.90;;;;;;5080534;28;20025;-70
2023/04/25 06:16:07;;;;;;;12.25;3.67;;;8.80;99.90;;;;;;5079634;28;20021;-70
2023/04/25 06:18:32;;;;;;;8.27;3.10;;;8.80;99.90;;;;;;5079268;28;20024;-70
2023/04/25 06:20:58;;;;;;;12.52;3.63;;;8.70;99.90;;;;;;5079489;28;20019;-70
2023/04/25 06:23:23;;;;;;;12.20;3.38;;;8.70;99.90;;;;;;5080023;28;20016;-70
2023/04/25 06:25:49;;;;;;;7.97;3.63;;;8.80;99.90;;;;;;5079125;28;20106;-70
2023/04/25 06:28:14;;;;;;;7.68;3.72;;;8.80;99.90;;;;;;5079319;28;20112;-70
2023/04/25 06:30:40;;;;;;;8.95;3.30;;;8.90;99.90;;;;;;5079298;28;20036;-70
2023/04/25 06:33:06;;;;;;;6.95;3.08;;;9.00;99.90;;;;;;5079828;28;20024;-70
2023/04/25 06:35:31;;;;;;;5.25;2.92;;;9.00;99.90;;;;;;5079537;28;20029;-70
2023/04/25 06:37:57;;;;;;;19.17;7.45;;;9.10;99.90;;;;;;5079414;28;20020;-70
2023/04/25 06:40:22;;;;;;;14.60;6.22;;;9.10;99.90;;;;;;5079170;28;20039;-70
2023/04/25 06:42:48;;;;;;;14.10;6.85;;;9.20;99.90;;;;;;5079693;28;20028;-70
2023/04/25 06:45:13;;;;;;;14.18;4.30;;;9.30;99.90;;;;;;5078697;28;20047;-70
2023/04/25 06:47:39;;;;;;;7.40;3.30;;;9.30;99.90;;;;;;5078774;28;20033;-70
2023/04/25 06:50:05;;;;;;;12.32;3.90;;;9.30;99.90;;;;;;5079406;28;20025;-70
2023/04/25 06:52:31;;;;;;;10.95;4.13;;;9.30;99.90;;;;;;5079096;28;20059;-71
2023/04/25 06:54:56;;;;;;;9.75;3.63;;;9.40;99.90;;;;;;5078513;28;20060;-71
2023/04/25 06:57:22;;;;;;;11.15;3.63;;;9.50;99.90;;;;;;5077962;28;20024;-72
2023/04/25 06:59:47;;;;;;;8.55;3.70;;;9.50;99.90;;;;;;5078949;28;20025;-72
2023/04/25 07:02:13;;;;;;;8.68;3.25;;;9.60;99.90;;;;;;5078545;28;20024;-72
2023/04/25 07:04:38;;;;;;;13.85;4.18;;;9.60;99.90;;;;;;5078424;28;20040;-72
2023/04/25 07:07:04;;;;;;;12.32;3.67;;;9.60;99.90;;;;;;5078756;28;20033;-72
2023/04/25 07:09:30;;;;;;;9.00;3.90;;;9.70;99.90;;;;;;5079015;28;20034;-72
2023/04/25 07:11:56;;;;;;;8.45;3.70;;;9.80;99.90;;;;;;5078661;28;20021;-71
2023/04/25 07:14:22;;;;;;;7.35;3.63;;;9.80;99.90;;;;;;5078359;28;20085;-71
2023/04/25 07:16:47;;;;;;;8.57;3.80;;;9.80;99.90;;;;;;5078313;28;20020;-71
2023/04/25 07:19:13;;;;;;;7.78;3.30;;;9.80;99.90;;;;;;5079310;28;20020;-71
2023/04/25 07:21:38;;;;;;;8.85;3.45;;;9.90;99.90;;;;;;5079184;28;20024;-71
2023/04/25 07:24:04;;;;;;;8.20;3.50;;;10.00;99.90;;;;;;5078359;28;20051;-71
2023/04/25 07:26:30;;;;;;;5.90;2.88;;;10.00;99.90;;;;;;5078142;28;20086;-71
2023/04/25 07:28:55;;;;;;;10.73;4.13;;;10.10;99.90;;;;;;5078354;28;20020;-71
2023/04/25 07:31:22;;;;;;;7.25;2.92;;;10.10;99.90;;;;;;5078414;28;20103;-71
2023/04/25 07:33:48;;;;;;;6.57;3.25;;;10.10;99.90;;;;;;5078247;28;20025;-72
2023/04/25 07:36:15;;;;;;;9.23;2.50;;;10.10;99.90;;;;;;5078628;28;20038;-71
2023/04/25 07:38:40;;;;;;;8.43;2.80;;;10.20;99.90;;;;;;5077844;28;20044;-70
2023/04/25 07:41:06;;;;;;;4.70;2.47;;;10.30;99.90;;;;;;5077818;28;20021;-70
2023/04/25 07:43:32;;;;;;;5.82;2.35;;;10.40;99.90;;;;;;5077793;28;20115;-71
2023/04/25 07:45:57;;;;;;;5.00;2.80;;;10.40;99.90;;;;;;5077760;28;20024;-71
2023/04/25 07:48:23;;;;;;;12.25;2.85;;;10.40;99.90;;;;;;5078073;28;20098;-71
2023/04/25 07:50:48;;;;;;;6.32;2.78;;;10.50;99.90;;;;;;5078827;28;20033;-70
2023/04/25 07:53:14;;;;;;;8.60;2.95;;;10.60;99.90;;;;;;5077967;28;20069;-70
2023/04/25 07:55:40;;;;;;;7.68;3.05;;;10.60;99.90;;;;;;5077845;28;20025;-71
2023/04/25 07:58:09;;;;;;;6.60;2.78;;;10.70;99.90;;;;;;5077648;28;20017;-71
2023/04/25 08:00:35;;;;;;;8.77;2.60;;;10.80;99.90;;;;;;5078036;28;20024;-71
2023/04/25 08:03:01;;;;;;;7.25;3.08;;;10.90;99.90;;;;;;5077210;28;20137;-71
2023/04/25 08:05:26;;;;;;;5.50;2.42;;;11.00;99.90;;;;;;5077640;28;20102;-70
2023/04/25 08:07:52;;;;;;;5.30;2.42;;;11.10;99.90;;;;;;5077356;28;20063;-70
2023/04/25 08:10:17;;;;;;;4.57;2.67;;;11.10;99.90;;;;;;5077742;28;20025;-71
2023/04/25 08:12:43;;;;;;;6.72;2.70;;;11.10;99.90;;;;;;5077438;28;20027;-71
2023/04/25 08:15:09;;;;;;;8.38;2.78;;;11.00;99.90;;;;;;5077740;28;20025;-70
2023/04/25 08:17:35;;;;;;;3.85;2.17;;;11.00;99.90;;;;;;5077325;28;20074;-70
2023/04/25 08:20:00;;;;;;;7.38;2.33;;;11.10;99.90;;;;;;5077860;28;20016;-70
2023/04/25 08:22:26;;;;;;;3.97;2.33;;;11.00;99.90;;;;;;5076938;28;20024;-70
2023/04/25 08:24:51;;;;;;;6.90;2.00;;;11.00;99.90;;;;;;5076926;28;20050;-71
2023/04/25 08:27:18;;;;;;;10.93;2.58;;;11.00;99.90;;;;;;5077915;28;20177;-71
2023/04/25 08:29:44;;;;;;;5.40;2.53;;;11.00;99.90;;;;;;5076836;28;20070;-71
2023/04/25 08:32:09;;;;;;;5.70;2.88;;;11.10;99.90;;;;;;5076980;28;20078;-71
2023/04/25 08:34:36;;;;;;;5.00;2.60;;;11.10;99.90;;;;;;5076965;28;20035;-71
2023/04/25 08:37:04;;;;;;;5.43;2.15;;;11.30;99.90;;;;;;5076884;28;20024;-71
2023/04/25 08:39:29;;;;;;;6.00;2.53;;;11.30;99.90;;;;;;5076688;28;20024;-70
2023/04/25 08:41:56;;;;;;;5.55;2.45;;;11.30;99.90;;;;;;5076878;28;20054;-72
2023/04/25 08:44:23;;;;;;;6.60;3.53;;;11.20;99.90;;;;;;5076447;28;20032;-72
2023/04/25 08:46:49;;;;;;;5.15;1.95;;;11.10;99.90;;;;;;5076906;28;20028;-72
2023/04/25 08:49:17;;;;;;;6.60;1.58;;;11.10;99.90;;;;;;5076650;28;20024;-72
2023/04/25 08:51:47;;;;;;;6.68;1.60;;;11.10;99.90;;;;;;5076360;28;20029;-72
2023/04/25 08:54:14;;;;;;;5.32;1.40;;;11.10;99.90;;;;;;5076681;28;20032;-71
2023/04/25 08:56:43;;;;;;;4.63;1.38;;;11.10;99.90;;;;;;5076664;28;20029;-71
2023/04/25 08:59:10;;;;;;;3.38;1.38;;;11.10;99.90;;;;;;5076736;28;20025;-71
2023/04/25 09:01:36;;;;;;;5.32;1.10;;;11.10;99.90;;;;;;5077310;28;20048;-71
2023/04/25 09:04:02;;;;;;;4.95;1.30;;;11.10;99.90;;;;;;5076283;28;20029;-71
2023/04/25 09:06:30;;;;;;;8.88;1.75;;;11.10;99.90;;;;;;5077314;28;20024;-71
2023/04/25 09:09:05;;;;;;;2.90;1.00;;;11.20;99.90;;;;;;5077344;28;20021;-71
2023/04/25 09:11:30;;;;;;;6.07;1.65;;;11.20;99.90;;;;;;5076298;28;20036;-72
2023/04/25 09:14:22;;;;;;;3.40;1.20;;;11.10;99.90;;;;;;5076381;28;20024;-72
2023/04/25 09:16:57;;;;;;;3.45;1.48;;;11.10;99.90;;;;;;5076248;28;20036;-72
2023/04/25 09:19:24;;;;;;;4.28;1.50;;;11.10;99.90;;;;;;5076264;28;20021;-72
2023/04/25 09:21:50;;;;;;;5.43;1.25;;;11.20;99.90;;;;;;5076823;28;20054;-72
2023/04/25 09:24:29;;;;;;;6.45;1.35;;;11.20;99.90;;;;;;5076979;28;20020;-72
2023/04/25 09:26:54;;;;;;;3.90;1.40;;;11.30;99.90;;;;;;5076351;28;20063;-72
2023/04/25 09:29:30;;;;;;;5.03;1.40;;;11.30;99.90;;;;;;5077095;28;20020;-71
2023/04/25 09:32:12;;;;;;;7.78;1.52;;;11.30;99.90;;;;;;5077063;28;20028;-72
2023/04/25 09:34:43;;;;;;;4.78;1.80;;;11.30;99.90;;;;;;5076818;28;20051;-71
2023/04/25 09:37:10;;;;;;;3.50;1.42;;;11.40;99.90;;;;;;5077027;28;20058;-71
2023/04/25 09:39:37;;;;;;;4.10;1.02;;;11.40;99.90;;;;;;5076243;28;20028;-71
2023/04/25 09:42:03;;;;;;;9.10;1.48;;;11.40;99.90;;;;;;5075957;28;20025;-71
2023/04/25 09:44:29;;;;;;;3.10;0.90;;;11.40;99.90;;;;;;5076030;28;20029;-72
2023/04/25 09:46:54;;;;;;;5.78;1.48;;;11.40;99.90;;;;;;5075772;28;20020;-72
2023/04/25 09:49:21;;;;;;;5.32;1.58;;;11.40;99.90;;;;;;5075853;28;20046;-72
2023/04/25 09:52:00;;;;;;;6.07;1.58;;;11.50;99.90;;;;;;5075860;28;20031;-72
2023/04/25 09:54:26;;;;;;;4.65;1.40;;;11.60;99.90;;;;;;5076009;28;20016;-72
2023/04/25 09:56:53;;;;;;;9.50;1.75;;;11.60;99.90;;;;;;5076831;28;20029;-72
2023/04/25 09:59:25;;;;;;;5.38;1.48;;;11.70;99.90;;;;;;5076901;28;20021;-73
2023/04/25 10:01:54;;;;;;;4.80;2.08;;;11.80;99.90;;;;;;5075703;28;20021;-72
2023/04/25 10:04:24;;;;;;;6.47;1.40;;;11.90;99.90;;;;;;5077741;28;20024;-71
2023/04/25 10:06:52;;;;;;;8.75;3.15;;;11.90;99.90;;;;;;5075653;28;20032;-71
2023/04/25 10:09:20;;;;;;;2.10;1.40;;;12.10;99.90;;;;;;5076850;28;20047;-71
2023/04/25 10:11:50;;;;;;;10.02;1.73;;;12.20;99.90;;;;;;5076565;28;20028;-71
2023/04/25 10:14:17;;;;;;;6.43;1.63;;;12.10;99.90;;;;;;5075611;28;20082;-71
2023/04/25 10:16:42;;;;;;;6.78;1.70;;;12.10;99.90;;;;;;5076601;28;20021;-71
2023/04/25 10:19:09;;;;;;;6.10;1.27;;;12.10;99.90;;;;;;5075556;28;20023;-71
2023/04/25 10:21:46;;;;;;;2.75;1.20;;;12.10;99.90;;;;;;5075687;28;20073;-71
2023/04/25 10:24:12;;;;;;;1.95;1.35;;;12.10;99.90;;;;;;5076755;28;20013;-71
2023/04/25 10:26:38;;;;;;;3.67;1.40;;;12.20;99.90;;;;;;5075672;28;20032;-71
2023/04/25 10:29:04;;;;;;;6.05;1.52;;;12.20;99.90;;;;;;5076595;28;20024;-72
2023/04/25 10:31:30;;;;;;;5.40;1.27;;;12.30;99.90;;;;;;5079080;28;20028;-72
2023/04/25 10:33:56;;;;;;;5.40;1.60;;;12.30;99.90;;;;;;5080123;28;20032;-71
2023/04/25 10:36:23;;;;;;;10.75;1.80;;;12.20;99.90;;;;;;5080091;28;20016;-72
2023/04/25 10:38:50;;;;;;;4.35;1.23;;;12.20;99.90;;;;;;5079269;28;20020;-72
2023/04/25 10:41:18;;;;;;;6.63;1.40;;;12.20;99.90;;;;;;5080034;28;20021;-71
2023/04/25 10:43:48;;;;;;;6.50;1.55;;;12.30;99.90;;;;;;5079641;28;20028;-72
2023/04/25 10:46:23;;;;;;;6.47;1.70;;;12.30;99.90;;;;;;5079730;28;20048;-71
2023/04/25 10:48:54;;;;;;;6.97;1.30;;;12.30;99.90;;;;;;5078845;28;20024;-71
2023/04/25 10:51:27;;;;;;;4.95;2.17;;;12.40;99.90;;;;;;5079124;28;20103;-71
2023/04/25 10:54:06;;;;;;;6.78;2.10;;;12.40;99.90;;;;;;5079272;28;20081;-72
2023/04/25 10:56:41;;;;;;;5.25;1.40;;;12.40;99.90;;;;;;5079140;28;20074;-71
2023/04/25 10:59:18;;;;;;;7.22;1.73;;;12.40;99.90;;;;;;5078889;28;20017;-72
2023/04/25 11:01:52;;;;;;;5.43;1.55;;;12.30;99.90;;;;;;5078624;28;20028;-72
2023/04/25 11:04:23;;;;;;;7.13;1.50;;;12.30;99.90;;;;;;5078602;28;20123;-72
2023/04/25 11:07:02;;;;;;;8.32;1.77;;;12.20;99.90;;;;;;5078448;28;20029;-72
2023/04/25 11:09:28;;;;;;;5.72;1.45;;;12.20;99.90;;;;;;5079442;28;20055;-72
2023/04/25 11:11:58;;;;;;;5.72;1.70;;;12.10;99.90;;;;;;5078690;28;20025;-72
2023/04/25 11:14:24;;;;;;;6.78;1.70;;;12.10;99.90;;;;;;5078295;28;20032;-72
2023/04/25 11:16:55;;;;;;;9.73;1.77;;;12.10;99.90;;;;;;5079046;28;20028;-72
2023/04/25 11:19:22;;;;;;;7.20;2.17;;;12.10;99.90;;;;;;5078264;28;20020;-72
2023/04/25 11:21:54;;;;;;;7.28;1.60;;;12.20;99.90;;;;;;5078593;28;20273;-72
2023/04/25 11:24:20;;;;;;;7.25;1.77;;;12.20;99.90;;;;;;5078349;28;20028;-73
2023/04/25 11:26:48;;;;;;;8.40;2.08;;;12.20;99.90;;;;;;5079181;28;20028;-73
2023/04/25 11:29:14;;;;;;;8.07;2.03;;;12.30;99.90;;;;;;5078665;28;20032;-73
2023/04/25 11:31:45;;;;;;;3.20;1.90;;;12.30;99.90;;;;;;5078086;28;20028;-73
2023/04/25 11:34:10;;;;;;;11.20;2.07;;;12.30;99.90;;;;;;5078795;28;20032;-72
2023/04/25 11:36:38;;;;;;;5.90;2.03;;;12.10;99.90;;;;;;5077942;28;20021;-72
2023/04/25 11:39:05;;;;;;;6.72;1.77;;;12.10;99.90;;;;;;5078381;28;20021;-73
2023/04/25 11:41:31;;;;;;;6.85;1.67;;;12.10;99.90;;;;;;5078037;28;20078;-73
2023/04/25 11:43:57;;;;;;;8.25;2.05;;;12.10;99.90;;;;;;5078267;28;20037;-71
2023/04/25 11:46:22;;;;;;;12.52;2.10;;;12.10;99.90;;;;;;5077763;28;20020;-71
2023/04/25 11:48:50;;;;;;;5.57;1.80;;;12.20;99.90;;;;;;5078767;28;20027;-70
2023/04/25 11:51:15;;;;;;;5.22;2.13;;;12.30;99.90;;;;;;5077878;28;20017;-71
2023/04/25 11:53:44;;;;;;;4.13;1.60;;;12.30;99.90;;;;;;5077434;28;20027;-71
2023/04/25 11:56:11;;;;;;;6.63;1.90;;;12.50;99.90;;;;;;5077608;28;20032;-72
2023/04/25 11:58:59;;;;;;;8.35;1.70;;;12.50;99.90;;;;;;5077693;28;20020;-71
2023/04/25 12:01:32;;;;;;;7.30;1.95;;;12.40;99.90;;;;;;5077258;28;20028;-71
2023/04/25 12:03:58;;;;;;;3.83;1.90;;;12.50;99.90;;;;;;5077340;28;20025;-71
2023/04/25 12:06:30;;;;;;;6.05;2.08;;;12.40;99.90;;;;;;5077508;28;20027;-71
2023/04/25 12:09:08;;;;;;;5.80;1.92;;;12.50;99.90;;;;;;5077228;28;20027;-71
2023/04/25 12:11:54;;;;;;;6.15;1.70;;;12.30;99.90;;;;;;5077650;28;20039;-72
2023/04/25 12:14:26;;;;;;;6.47;1.83;;;12.30;99.90;;;;;;5079875;28;20047;-71
2023/04/25 12:16:54;;;;;;;9.00;1.75;;;12.20;99.90;;;;;;5077114;28;20025;-71
2023/04/25 12:19:20;;;;;;;6.15;2.05;;;12.20;99.90;;;;;;5078155;28;20016;-72
2023/04/25 12:21:47;;;;;;;7.13;1.73;;;12.10;99.90;;;;;;5077320;28;20021;-71
2023/04/25 12:24:18;;;;;;;5.70;1.70;;;12.10;99.90;;;;;;5077011;28;20024;-72
2023/04/25 12:27:09;;;;;;;4.23;2.10;;;12.10;99.90;;;;;;5077991;28;20025;-72
2023/04/25 12:29:35;;;;;;;6.20;1.90;;;12.00;99.90;;;;;;5077104;28;20123;-72
2023/04/25 12:32:03;;;;;;;7.38;2.15;;;12.10;99.90;;;;;;5077414;28;20059;-72
2023/04/25 12:34:31;;;;;;;4.63;2.10;;;12.20;99.90;;;;;;5077692;28;20020;-72
2023/04/25 12:36:57;;;;;;;4.90;1.80;;;12.30;99.90;;;;;;5077594;28;20035;-72
2023/04/25 12:39:24;;;;;;;12.43;3.17;;;12.60;99.90;;;;;;5076768;28;20111;-72
2023/04/25 12:41:53;;;;;;;5.65;1.70;;;13.20;99.90;;;;;;5076891;28;20024;-72
2023/04/25 12:44:19;;;;;;;3.95;1.70;;;13.90;99.90;;;;;;5077518;28;20071;-72
2023/04/25 12:46:45;;;;;;;6.13;2.08;;;14.20;99.90;;;;;;5076628;28;20021;-72
2023/04/25 12:49:11;;;;;;;7.78;1.67;;;14.50;99.90;;;;;;5077722;28;20066;-72